Time;durP1;ratioP1;P1;durP2;ratioP2;P2;SDS_P1;SDS_P2;PMS_P1;PMS_P2;Temp;Humidity;BMP_temperature;BMP_pressure;BME280_temperature;BME280_humidity;BME280_pressure;Samples;Min_cycle;Max_cycle;Signal;HPM_P1;HPM_P2
2023/04/18 00:00:00;;;;;;;;;;;19.30;99.90;;;;;;5076628;28;19915;-69
2023/04/18 00:02:28;;;;;;;;;;;19.30;99.90;;;;;;5078625;28;19916;-69
2023/04/18 00:04:55;;;;;;;;;;;19.50;99.90;;;;;;5075686;28;19908;-68
2023/04/18 00:07:21;;;;;;;;;;;19.60;99.90;;;;;;5078662;28;19954;-70
2023/04/18 00:09:48;;;;;;;;;;;19.70;99.90;;;;;;5077144;28;19908;-65
2023/04/18 00:12:15;;;;;;;;;;;19.80;99.90;;;;;;5076775;28;19908;-65
2023/04/18 00:14:42;;;;;;;;;;;19.80;99.90;;;;;;5077159;28;19915;-67
2023/04/18 00:17:09;;;;;;;;;;;19.80;99.90;;;;;;5076627;28;19915;-70
2023/04/18 00:19:37;;;;;;;;;;;19.90;99.90;;;;;;5078484;28;20372;-68
2023/04/18 00:22:05;;;;;;;;;;;20.00;99.90;;;;;;5076543;28;19915;-66
2023/04/18 00:24:32;;;;;;;;;;;20.00;99.90;;;;;;5078124;28;20097;-69
2023/04/18 00:27:00;;;;;;;;;;;20.20;99.90;;;;;;5075147;28;19940;-66
2023/04/18 00:29:30;;;;;;;;;;;20.40;99.90;;;;;;5077853;28;19909;-67
2023/04/18 00:31:57;;;;;;;;;;;20.80;99.90;;;;;;5076066;28;19944;-66
2023/04/18 00:34:24;;;;;;;;;;;21.10;99.90;;;;;;5077837;28;19965;-68
2023/04/18 00:36:50;;;;;;;;;;;21.40;99.90;;;;;;5076938;28;20319;-68
2023/04/18 00:39:17;;;;;;;;;;;21.80;99.30;;;;;;5075673;28;20172;-69
2023/04/18 00:41:43;;;;;;;;;;;22.10;97.70;;;;;;5077385;28;19912;-68
2023/04/18 00:44:10;;;;;;;;;;;22.20;97.20;;;;;;5076211;28;20357;-68
2023/04/18 00:46:37;;;;;;;;;;;22.30;96.70;;;;;;5078216;28;20091;-66
2023/04/18 00:49:03;;;;;;;;;;;22.50;96.40;;;;;;5074430;28;19916;-68
2023/04/18 00:51:30;;;;;;;;;;;22.60;96.20;;;;;;5077901;28;19914;-68
2023/04/18 00:53:57;;;;;;;;;;;22.80;96.00;;;;;;5076038;28;20331;-66
2023/04/18 00:56:25;;;;;;;;;;;22.80;95.90;;;;;;5077282;28;19954;-69
2023/04/18 00:58:52;;;;;;;;;;;23.00;95.60;;;;;;5076573;28;19924;-69
2023/04/18 01:01:19;;;;;;;;;;;23.20;95.90;;;;;;5076022;28;19911;-68
2023/04/18 01:03:45;;;;;;;;;;;23.30;95.70;;;;;;5078044;28;19974;-65
2023/04/18 01:06:12;;;;;;;;;;;23.50;95.80;;;;;;5077442;28;19991;-69
2023/04/18 01:08:39;;;;;;;;;;;23.60;94.10;;;;;;5077166;28;20477;-69
2023/04/18 01:11:06;;;;;;;;;;;23.50;94.10;;;;;;5075948;28;20365;-68
2023/04/18 01:13:33;;;;;;;;;;;23.80;94.40;;;;;;5076252;28;19953;-69
2023/04/18 01:15:59;;;;;;;;;;;24.00;93.60;;;;;;5076786;28;20272;-68
2023/04/18 01:18:26;;;;;;;;;;;24.20;93.20;;;;;;5075591;28;20150;-68
2023/04/18 01:20:55;;;;;;;;;;;24.40;92.90;;;;;;5076296;28;19995;-65
2023/04/18 01:23:22;;;;;;;;;;;24.60;92.80;;;;;;5075491;28;20022;-64
2023/04/18 01:25:49;;;;;;;;;;;24.50;92.50;;;;;;5076802;28;19915;-68
2023/04/18 01:28:16;;;;;;;;;;;24.50;92.20;;;;;;5077353;28;19994;-64
2023/04/18 01:30:42;;;;;;;;;;;24.30;91.80;;;;;;5076492;28;19908;-69
2023/04/18 01:33:09;;;;;;;;;;;24.10;92.60;;;;;;5075872;28;20561;-68
2023/04/18 01:35:36;;;;;;;;;;;24.10;92.70;;;;;;5075535;28;20007;-65
2023/04/18 01:38:02;;;;;;;;;;;24.20;92.10;;;;;;5076344;28;19912;-70
2023/04/18 01:40:29;;;;;;;;;;;24.00;93.00;;;;;;5075469;28;19908;-68
2023/04/18 01:42:56;;;;;;;;;;;23.80;93.30;;;;;;5076172;28;19930;-63
2023/04/18 01:45:22;;;;;;;;;;;23.90;93.30;;;;;;5076152;28;19915;-64
2023/04/18 01:47:49;;;;;;;;;;;24.00;93.30;;;;;;5077802;28;19908;-66
2023/04/18 01:50:16;;;;;;;;;;;24.10;93.80;;;;;;5079911;28;19908;-69
2023/04/18 01:52:42;;;;;;;;;;;24.20;93.40;;;;;;5079298;28;19908;-69
2023/04/18 01:55:09;;;;;;;;;;;24.20;93.20;;;;;;5079833;28;19909;-69
2023/04/18 01:57:36;;;;;;;;;;;24.00;93.70;;;;;;5079342;28;19923;-66
2023/04/18 02:00:06;;;;;;;;;;;24.10;93.70;;;;;;5080392;28;19908;-68
2023/04/18 02:02:33;;;;;;;;;;;24.20;93.40;;;;;;5078950;28;20068;-70
2023/04/18 02:04:59;;;;;;;;;;;24.30;92.80;;;;;;5080020;28;19920;-69
2023/04/18 02:07:26;;;;;;;;;;;24.30;92.90;;;;;;5080306;28;19908;-63
2023/04/18 02:09:53;;;;;;;;;;;24.30;92.90;;;;;;5080779;28;19908;-68
2023/04/18 02:12:19;;;;;;;;;;;24.30;92.80;;;;;;5080092;28;20595;-68
2023/04/18 02:14:50;;;;;;;;;;;24.40;92.60;;;;;;5078831;28;20159;-68
2023/04/18 02:17:16;;;;;;;;;;;24.40;93.10;;;;;;5078989;28;20221;-67
2023/04/18 02:19:43;;;;;;;;;;;24.50;92.70;;;;;;5079396;28;20515;-64
2023/04/18 02:22:10;;;;;;;;;;;24.60;92.40;;;;;;5079466;28;19938;-68
2023/04/18 02:24:36;;;;;;;;;;;24.70;92.30;;;;;;5078740;28;19920;-68
2023/04/18 02:27:03;;;;;;;;;;;24.90;92.50;;;;;;5078866;28;20300;-66
2023/04/18 02:29:30;;;;;;;;;;;24.90;92.10;;;;;;5079243;28;19912;-66
2023/04/18 02:31:57;;;;;;;;;;;24.90;91.80;;;;;;5080026;28;19912;-67
2023/04/18 02:34:23;;;;;;;;;;;24.80;92.10;;;;;;5079823;28;20416;-69
2023/04/18 02:36:50;;;;;;;;;;;24.80;92.30;;;;;;5078436;28;20080;-67
2023/04/18 02:39:17;;;;;;;;;;;25.00;92.00;;;;;;5079051;28;20186;-70
2023/04/18 02:41:43;;;;;;;;;;;25.20;91.60;;;;;;5078573;28;20507;-65
2023/04/18 02:44:10;;;;;;;;;;;25.30;91.70;;;;;;5078776;28;19916;-70
2023/04/18 02:46:36;;;;;;;;;;;25.30;91.40;;;;;;5077923;28;19912;-68
2023/04/18 02:49:03;;;;;;;;;;;25.10;91.00;;;;;;5079558;28;20092;-67
2023/04/18 02:51:30;;;;;;;;;;;24.80;91.50;;;;;;5079226;28;20003;-68
2023/04/18 02:53:56;;;;;;;;;;;24.70;91.70;;;;;;5078907;28;19994;-68
2023/04/18 02:56:23;;;;;;;;;;;24.90;91.70;;;;;;5078468;28;19940;-68
2023/04/18 02:58:50;;;;;;;;;;;25.00;91.80;;;;;;5078004;28;19957;-69
2023/04/18 03:01:17;;;;;;;;;;;25.20;91.00;;;;;;5078689;28;20462;-69
2023/04/18 03:03:44;;;;;;;;;;;25.70;91.20;;;;;;5077677;28;20618;-69
2023/04/18 03:06:11;;;;;;;;;;;25.50;90.00;;;;;;5060436;28;19915;-68
2023/04/18 03:08:37;;;;;;;;;;;25.50;90.50;;;;;;5078518;28;19991;-65
2023/04/18 03:11:04;;;;;;;;;;;25.50;90.60;;;;;;5079367;28;19912;-65
2023/04/18 03:13:31;;;;;;;;;;;25.20;90.70;;;;;;5078879;28;19915;-71
2023/04/18 03:15:58;;;;;;;;;;;25.10;91.00;;;;;;5078488;28;19908;-70
2023/04/18 03:18:24;;;;;;;;;;;25.00;91.20;;;;;;5078120;28;19912;-69
2023/04/18 03:20:51;;;;;;;;;;;24.80;90.50;;;;;;5078198;28;20436;-70
2023/04/18 03:23:17;;;;;;;;;;;24.50;91.40;;;;;;5078687;28;19923;-68
2023/04/18 03:25:44;;;;;;;;;;;24.50;91.70;;;;;;5077731;28;20357;-64
2023/04/18 03:28:11;;;;;;;;;;;24.50;91.90;;;;;;5078341;28;19950;-70
2023/04/18 03:30:37;;;;;;;;;;;24.60;91.50;;;;;;5078432;28;19999;-68
2023/04/18 03:33:04;;;;;;;;;;;24.70;92.20;;;;;;5078904;28;19912;-70
2023/04/18 03:35:31;;;;;;;;;;;24.90;91.30;;;;;;5078102;28;20076;-69
2023/04/18 03:37:57;;;;;;;;;;;25.00;91.30;;;;;;5076990;28;19912;-71
2023/04/18 03:40:24;;;;;;;;;;;25.00;90.90;;;;;;5077916;28;20002;-67
2023/04/18 03:42:51;;;;;;;;;;;25.10;90.80;;;;;;5077374;28;19982;-69
2023/04/18 03:45:18;;;;;;;;;;;25.20;90.80;;;;;;5077771;28;19908;-68
2023/04/18 03:47:44;;;;;;;;;;;25.40;90.40;;;;;;5077436;28;19912;-66
2023/04/18 03:50:11;;;;;;;;;;;25.60;90.40;;;;;;5078930;28;19908;-67
2023/04/18 03:52:38;;;;;;;;;;;25.30;90.70;;;;;;5078570;28;19909;-70
2023/04/18 03:55:04;;;;;;;;;;;25.70;91.20;;;;;;5077468;28;19919;-63
2023/04/18 03:57:31;;;;;;;;;;;26.60;89.60;;;;;;5077274;28;19912;-65
2023/04/18 03:59:58;;;;;;;;;;;28.20;86.90;;;;;;5077488;28;20011;-67
2023/04/18 04:02:25;;;;;;;;;;;29.90;82.60;;;;;;5077579;28;20200;-70
2023/04/18 04:04:51;;;;;;;;;;;30.90;77.80;;;;;;5076844;28;20010;-66
2023/04/18 04:07:18;;;;;;;;;;;32.10;75.80;;;;;;5077824;28;19912;-69
2023/04/18 04:09:44;;;;;;;;;;;32.70;73.70;;;;;;5077759;28;20353;-66
2023/04/18 04:12:11;;;;;;;;;;;32.50;71.80;;;;;;5077647;28;20007;-69
2023/04/18 04:14:38;;;;;;;;;;;31.70;73.30;;;;;;5077068;28;20174;-69
2023/04/18 04:17:04;;;;;;;;;;;30.40;73.00;;;;;;5076614;28;20015;-67
2023/04/18 04:19:31;;;;;;;;;;;29.30;74.90;;;;;;5076932;28;19908;-65
2023/04/18 04:21:58;;;;;;;;;;;28.70;77.10;;;;;;5076566;28;20357;-71
2023/04/18 04:24:24;;;;;;;;;;;28.30;78.00;;;;;;5076849;28;19928;-69
2023/04/18 04:26:52;;;;;;;;;;;28.10;78.80;;;;;;5076416;28;20092;-69
2023/04/18 04:29:20;;;;;;;;;;;27.90;78.80;;;;;;5077899;28;19913;-65
2023/04/18 04:31:46;;;;;;;;;;;27.90;79.90;;;;;;5077422;28;19919;-66
2023/04/18 04:34:15;;;;;;;;;;;27.90;78.70;;;;;;5077752;28;19958;-71
2023/04/18 04:36:42;;;;;;;;;;;27.70;80.10;;;;;;5076939;28;19908;-70
2023/04/18 04:39:10;;;;;;;;;;;27.90;79.10;;;;;;5076153;28;20254;-68
2023/04/18 04:41:38;;;;;;;;;;;28.20;78.90;;;;;;5076858;28;19969;-70
2023/04/18 04:44:05;;;;;;;;;;;28.70;78.50;;;;;;5076838;28;19964;-70
2023/04/18 04:46:32;;;;;;;;;;;29.80;76.80;;;;;;5076592;28;19923;-70
2023/04/18 04:49:00;;;;;;;;;;;31.10;73.20;;;;;;5076387;28;19915;-69
2023/04/18 04:51:26;;;;;;;;;;;31.70;73.10;;;;;;5075572;28;20151;-68
2023/04/18 04:53:53;;;;;;;;;;;32.40;71.20;;;;;;5077553;28;19989;-69
2023/04/18 04:56:21;;;;;;;;;;;32.40;71.00;;;;;;5076755;28;19915;-68
2023/04/18 04:58:48;;;;;;;;;;;32.30;71.20;;;;;;5077176;28;20304;-69
2023/04/18 05:01:24;;;;;;;;;;;32.90;71.10;;;;;;5076120;28;19908;-65
2023/04/18 05:03:54;;;;;;;;;;;34.30;68.20;;;;;;5076310;28;20384;-70
2023/04/18 05:06:21;;;;;;;;;;;35.10;66.10;;;;;;5076727;28;20409;-66
2023/04/18 05:08:48;;;;;;;;;;;36.10;64.10;;;;;;5076552;28;19915;-70
2023/04/18 05:11:39;;;;;;;;;;;36.90;62.80;;;;;;5075682;28;19934;-67
2023/04/18 05:14:06;;;;;;;;;;;37.00;62.60;;;;;;5077858;28;19908;-71
2023/04/18 05:16:38;;;;;;;;;;;37.40;60.60;;;;;;5074701;28;20365;-70
2023/04/18 05:19:05;;;;;;;;;;;36.60;62.40;;;;;;5077908;28;20366;-71
2023/04/18 05:21:32;;;;;;;;;;;36.90;60.30;;;;;;5074112;28;19908;-66
2023/04/18 05:23:58;;;;;;;;;;;36.60;60.70;;;;;;5076397;28;20016;-63
2023/04/18 05:26:25;;;;;;;;;;;36.70;59.60;;;;;;5075720;28;20360;-63
2023/04/18 05:28:52;;;;;;;;;;;37.40;61.40;;;;;;5076472;28;20356;-70
2023/04/18 05:31:18;;;;;;;;;;;37.60;60.00;;;;;;5075531;28;20473;-68
2023/04/18 05:33:45;;;;;;;;;;;37.70;60.00;;;;;;5075907;28;19908;-68
2023/04/18 05:36:11;;;;;;;;;;;38.10;59.20;;;;;;5076781;28;19908;-68
2023/04/18 05:38:38;;;;;;;;;;;38.10;59.00;;;;;;5075541;28;19948;-70
2023/04/18 05:41:05;;;;;;;;;;;37.90;58.40;;;;;;5077263;28;19948;-67
2023/04/18 05:43:31;;;;;;;;;;;37.80;59.30;;;;;;5074779;28;20026;-68
2023/04/18 05:45:58;;;;;;;;;;;37.80;59.50;;;;;;5077120;28;19912;-63
2023/04/18 05:48:25;;;;;;;;;;;37.70;59.70;;;;;;5075808;28;19998;-67
2023/04/18 05:50:51;;;;;;;;;;;38.20;59.00;;;;;;5075659;28;20118;-70
2023/04/18 05:53:18;;;;;;;;;;;37.90;59.10;;;;;;5076155;28;20007;-68
2023/04/18 05:55:47;;;;;;;;;;;37.60;58.70;;;;;;5075591;28;19916;-65
2023/04/18 05:58:14;;;;;;;;;;;37.50;59.30;;;;;;5076909;28;19908;-65
2023/04/18 06:00:41;;;;;;;;;;;37.10;58.50;;;;;;5074957;28;19931;-70
2023/04/18 06:03:08;;;;;;;;;;;36.80;60.10;;;;;;5077086;28;19912;-70
2023/04/18 06:05:34;;;;;;;;;;;37.20;59.20;;;;;;5074550;28;20181;-65
2023/04/18 06:08:02;;;;;;;;;;;36.90;60.30;;;;;;5077068;28;19908;-66
2023/04/18 06:10:29;;;;;;;;;;;37.10;60.20;;;;;;5075377;28;19961;-70
2023/04/18 06:12:55;;;;;;;;;;;37.40;60.50;;;;;;5075445;28;19957;-68
2023/04/18 06:15:22;;;;;;;;;;;36.70;61.20;;;;;;5076178;28;19908;-69
2023/04/18 06:17:48;;;;;;;;;;;36.40;61.60;;;;;;5076202;28;19908;-68
2023/04/18 06:20:15;;;;;;;;;;;36.10;61.40;;;;;;5076792;28;19909;-69
2023/04/18 06:22:42;;;;;;;;;;;35.50;63.40;;;;;;5075596;28;20148;-70
2023/04/18 06:25:09;;;;;;;;;;;34.90;63.50;;;;;;5075282;28;19912;-65
2023/04/18 06:27:38;;;;;;;;;;;33.80;65.00;;;;;;5076160;28;20414;-68
2023/04/18 06:30:06;;;;;;;;;;;33.10;66.10;;;;;;5075468;28;19908;-69
2023/04/18 06:32:33;;;;;;;;;;;32.40;67.50;;;;;;5076691;28;19908;-66
2023/04/18 06:35:00;;;;;;;;;;;31.30;69.60;;;;;;5076224;28;19915;-66
2023/04/18 06:37:26;;;;;;;;;;;30.80;70.30;;;;;;5079642;28;19985;-68
2023/04/18 06:39:53;;;;;;;;;;;29.90;70.80;;;;;;5079104;28;20249;-69
2023/04/18 06:42:20;;;;;;;;;;;28.80;73.30;;;;;;5079704;28;19915;-70
2023/04/18 06:44:47;;;;;;;;;;;28.50;74.60;;;;;;5079808;28;19980;-62
2023/04/18 06:47:13;;;;;;;;;;;28.10;75.70;;;;;;5077723;28;19908;-62
2023/04/18 06:49:40;;;;;;;;;;;27.90;76.20;;;;;;5079934;28;19908;-68
2023/04/18 06:52:06;;;;;;;;;;;27.40;77.60;;;;;;5077833;28;20417;-62
2023/04/18 06:54:33;;;;;;;;;;;27.00;78.20;;;;;;5079928;28;19909;-69
2023/04/18 06:57:02;;;;;;;;;;;26.40;80.80;;;;;;5077523;28;19908;-68
2023/04/18 06:59:28;;;;;;;;;;;25.70;82.20;;;;;;5079558;28;20372;-68
2023/04/18 07:01:55;;;;;;;;;;;25.20;84.10;;;;;;5079431;28;20130;-69
2023/04/18 07:04:22;;;;;;;;;;;24.70;86.20;;;;;;5078445;28;20055;-69
2023/04/18 07:06:49;;;;;;;;;;;24.20;87.50;;;;;;5078790;28;19908;-65
2023/04/18 07:09:15;;;;;;;;;;;23.80;89.00;;;;;;5077344;28;19947;-65
2023/04/18 07:11:42;;;;;;;;;;;23.30;90.40;;;;;;5079519;28;19989;-68
2023/04/18 07:14:10;;;;;;;;;;;23.10;91.20;;;;;;5076832;28;20503;-65
2023/04/18 07:16:37;;;;;;;;;;;22.90;91.80;;;;;;5079289;28;19914;-68
2023/04/18 07:19:04;;;;;;;;;;;22.60;92.40;;;;;;5077017;28;20098;-64
2023/04/18 07:21:31;;;;;;;;;;;22.30;93.10;;;;;;5079784;28;20475;-67
2023/04/18 07:23:58;;;;;;;;;;;22.10;93.70;;;;;;5079052;28;19920;-66
2023/04/18 07:26:26;;;;;;;;;;;21.90;94.40;;;;;;5078088;28;20067;-71
2023/04/18 07:28:53;;;;;;;;;;;21.70;95.20;;;;;;5078590;28;19950;-68
2023/04/18 07:31:19;;;;;;;;;;;21.60;95.80;;;;;;5059470;28;20273;-67
2023/04/18 07:33:46;;;;;;;;;;;21.50;96.40;;;;;;5078844;28;19912;-65
2023/04/18 07:36:12;;;;;;;;;;;21.40;96.80;;;;;;5077242;28;20427;-66
2023/04/18 07:38:39;;;;;;;;;;;21.30;97.60;;;;;;5079017;28;19940;-65
2023/04/18 07:41:06;;;;;;;;;;;21.10;98.10;;;;;;5077355;28;19951;-63
2023/04/18 07:43:32;;;;;;;;;;;21.00;98.40;;;;;;5079500;28;19946;-63
2023/04/18 07:45:59;;;;;;;;;;;20.90;99.00;;;;;;5077971;28;19908;-68
2023/04/18 07:48:26;;;;;;;;;;;20.80;99.60;;;;;;5076263;28;19909;-68
2023/04/18 07:50:53;;;;;;;;;;;20.60;99.90;;;;;;5078362;28;19999;-63
2023/04/18 07:53:20;;;;;;;;;;;20.50;99.90;;;;;;5076872;28;19904;-66
2023/04/18 07:55:46;;;;;;;;;;;20.40;99.90;;;;;;5078878;28;19991;-67
2023/04/18 07:58:13;;;;;;;;;;;20.30;99.90;;;;;;5076094;28;19961;-65
2023/04/18 08:00:41;;;;;;;;;;;20.30;99.90;;;;;;5078199;28;19908;-62
2023/04/18 08:03:11;;;;;;;;;;;20.20;99.90;;;;;;5077244;28;20398;-64
2023/04/18 08:05:38;;;;;;;;;;;20.10;99.90;;;;;;5079075;28;19923;-64
2023/04/18 08:08:06;;;;;;;;;;;20.10;99.90;;;;;;5078039;28;19912;-64
2023/04/18 08:10:33;;;;;;;;;;;20.10;99.90;;;;;;5076974;28;19912;-63
2023/04/18 08:13:00;;;;;;;;;;;20.10;99.90;;;;;;5077545;28;19915;-66
2023/04/18 08:15:27;;;;;;;;;;;20.00;99.90;;;;;;5075705;28;19914;-63
2023/04/18 08:17:55;;;;;;;;;;;19.90;99.90;;;;;;5077864;28;19912;-64
2023/04/18 08:20:22;;;;;;;;;;;19.90;99.90;;;;;;5076199;28;19936;-64
2023/04/18 08:22:49;;;;;;;;;;;19.90;99.90;;;;;;5078130;28;19924;-69
2023/04/18 08:25:16;;;;;;;;;;;19.80;99.90;;;;;;5075266;28;19915;-64
2023/04/18 08:27:43;;;;;;;;;;;19.80;99.90;;;;;;5078513;28;19908;-64
2023/04/18 08:30:09;;;;;;;;;;;19.80;99.90;;;;;;5078335;28;20360;-63
2023/04/18 08:32:36;;;;;;;;;;;19.70;99.90;;;;;;5075642;28;19916;-63
2023/04/18 08:35:03;;;;;;;;;;;19.70;99.90;;;;;;5077426;28;19914;-69
2023/04/18 08:37:30;;;;;;;;;;;19.60;99.90;;;;;;5076931;28;20374;-68
2023/04/18 08:39:57;;;;;;;;;;;19.60;99.90;;;;;;5077174;28;19995;-64
2023/04/18 08:42:23;;;;;;;;;;;19.60;99.90;;;;;;5078429;28;19908;-68
2023/04/18 08:44:50;;;;;;;;;;;19.50;99.90;;;;;;5075764;28;19923;-65
2023/04/18 08:47:18;;;;;;;;;;;19.50;99.90;;;;;;5077931;28;20006;-62
2023/04/18 08:49:45;;;;;;;;;;;19.50;99.90;;;;;;5075179;28;19908;-63
2023/04/18 08:52:18;;;;;;;;;;;19.50;99.90;;;;;;5077910;28;20422;-62
2023/04/18 08:54:46;;;;;;;;;;;19.50;99.90;;;;;;5075686;28;20380;-64
2023/04/18 08:57:15;;;;;;;;;;;19.40;99.90;;;;;;5077620;28;20261;-62
2023/04/18 08:59:44;;;;;;;;;;;19.40;99.90;;;;;;5075298;28;19994;-63
2023/04/18 09:02:11;;;;;;;;;;;19.40;99.90;;;;;;5077206;28;19909;-65
2023/04/18 09:04:38;;;;;;;;;;;19.40;99.90;;;;;;5075374;28;20432;-63
2023/04/18 09:07:06;;;;;;;;;;;19.40;99.90;;;;;;5077040;28;20269;-64
2023/04/18 09:09:49;;;;;;;;;;;19.40;99.90;;;;;;5077861;28;19908;-64
2023/04/18 09:12:21;;;;;;;;;;;19.40;99.90;;;;;;5077524;28;19935;-66
2023/04/18 09:14:49;;;;;;;;;;;19.30;99.90;;;;;;5074791;28;19908;-67
2023/04/18 09:17:32;;;;;;;;;;;19.30;99.90;;;;;;5077664;28;19961;-68
2023/04/18 09:20:00;;;;;;;;;;;19.30;99.90;;;;;;5075472;28;20111;-69
2023/04/18 09:22:45;;;;;;;;;;;19.30;99.90;;;;;;5077600;28;20541;-62
2023/04/18 09:25:23;;;;;;;;;;;19.20;99.90;;;;;;5076894;28;20418;-68
2023/04/18 09:27:50;;;;;;;;;;;19.30;99.90;;;;;;5074554;28;19910;-69
2023/04/18 09:30:37;;;;;;;;;;;19.20;99.90;;;;;;5077237;28;19915;-69
2023/04/18 09:33:06;;;;;;;;;;;19.10;99.90;;;;;;5076288;28;19954;-68
2023/04/18 09:35:33;;;;;;;;;;;19.10;99.90;;;;;;5077732;28;19909;-65
2023/04/18 09:38:00;;;;;;;;;;;19.10;99.90;;;;;;5075137;28;20072;-64
2023/04/18 09:40:26;;;;;;;;;;;19.00;99.90;;;;;;5077151;28;19908;-66
2023/04/18 09:42:54;;;;;;;;;;;19.00;99.90;;;;;;5074367;28;20361;-70
2023/04/18 09:45:21;;;;;;;;;;;19.00;99.90;;;;;;5077493;28;19988;-68
2023/04/18 09:47:48;;;;;;;;;;;19.00;99.90;;;;;;5074980;28;19950;-66
2023/04/18 09:50:19;;;;;;;;;;;18.90;99.90;;;;;;5076203;28;19999;-62
2023/04/18 09:52:46;;;;;;;;;;;18.90;99.90;;;;;;5075005;28;19908;-68
2023/04/18 09:55:15;;;;;;;;;;;18.90;99.90;;;;;;5076522;28;19910;-67
2023/04/18 09:57:43;;;;;;;;;;;18.90;99.90;;;;;;5075923;28;19915;-63
2023/04/18 10:00:15;;;;;;;;;;;18.90;99.90;;;;;;5076418;28;20003;-65
2023/04/18 10:03:02;;;;;;;;;;;18.80;99.90;;;;;;5075654;28;19908;-63
2023/04/18 10:05:34;;;;;;;;;;;18.80;99.90;;;;;;5069581;28;19912;-61
2023/04/18 10:08:02;;;;;;;;;;;18.80;99.90;;;;;;5073810;28;20090;-65
2023/04/18 10:10:28;;;;;;;;;;;18.80;99.90;;;;;;5080341;28;19908;-64
2023/04/18 10:12:56;;;;;;;;;;;18.70;99.90;;;;;;5078708;28;20364;-62
2023/04/18 10:15:25;;;;;;;;;;;18.60;99.90;;;;;;5082432;28;19909;-67
2023/04/18 10:17:54;;;;;;;;;;;18.60;99.90;;;;;;5080465;28;19908;-68
2023/04/18 10:20:25;;;;;;;;;;;18.60;99.90;;;;;;5080919;28;19908;-63
2023/04/18 10:22:52;;;;;;;;;;;18.60;99.90;;;;;;5078268;28;19920;-61
2023/04/18 10:25:41;;;;;;;;;;;18.50;99.90;;;;;;5080091;28;19908;-66
2023/04/18 10:28:08;;;;;;;;;;;18.50;99.90;;;;;;5072251;28;20033;-69
2023/04/18 10:30:41;;;;;;;;;;;18.50;99.90;;;;;;5080277;28;19908;-65
2023/04/18 10:33:21;;;;;;;;;;;18.40;99.90;;;;;;5077419;28;19912;-69
2023/04/18 10:35:57;;;;;;;;;;;18.50;99.90;;;;;;5079444;28;20197;-64
2023/04/18 10:38:25;;;;;;;;;;;18.40;99.90;;;;;;5079702;28;19919;-63
2023/04/18 10:40:51;;;;;;;;;;;18.40;99.90;;;;;;5078522;28;19908;-65
2023/04/18 10:43:18;;;;;;;;;;;18.40;99.90;;;;;;5080036;28;19930;-68
2023/04/18 10:46:04;;;;;;;;;;;18.30;99.90;;;;;;5080659;28;20365;-64
2023/04/18 10:48:33;;;;;;;;;;;18.40;99.90;;;;;;5079997;28;20318;-63
2023/04/18 10:51:19;;;;;;;;;;;18.30;99.90;;;;;;5078231;28;19909;-63
2023/04/18 10:53:48;;;;;;;;;;;18.30;99.90;;;;;;5080377;28;19914;-64
2023/04/18 10:56:15;;;;;;;;;;;18.30;99.90;;;;;;5078444;28;19916;-69
2023/04/18 10:58:43;;;;;;;;;;;18.20;99.90;;;;;;5080344;28;19930;-68
2023/04/18 11:01:11;;;;;;;;;;;18.30;99.90;;;;;;5076871;28;19951;-65
2023/04/18 11:03:38;;;;;;;;;;;18.20;99.90;;;;;;5080144;28;20380;-69
2023/04/18 11:06:05;;;;;;;;;;;18.20;99.90;;;;;;5077540;28;19912;-65
2023/04/18 11:08:31;;;;;;;;;;;18.20;99.90;;;;;;5079542;28;19915;-62
2023/04/18 11:10:59;;;;;;;;;;;18.20;99.90;;;;;;5078364;28;20353;-68
2023/04/18 11:13:26;;;;;;;;;;;18.20;99.90;;;;;;5079100;28;19931;-68
2023/04/18 11:15:52;;;;;;;;;;;18.20;99.90;;;;;;5079811;28;20276;-66
2023/04/18 11:18:19;;;;;;;;;;;18.20;99.90;;;;;;5078124;28;19931;-64
2023/04/18 11:20:49;;;;;;;;;;;18.10;99.90;;;;;;5079242;28;20095;-66
2023/04/18 11:23:17;;;;;;;;;;;18.20;99.90;;;;;;5077098;28;19974;-68
2023/04/18 11:25:44;;;;;;;;;;;18.10;99.90;;;;;;5080266;28;19912;-65
2023/04/18 11:28:12;;;;;;;;;;;18.10;99.90;;;;;;5077443;28;19911;-64
2023/04/18 11:30:43;;;;;;;;;;;18.10;99.90;;;;;;5079176;28;21259;-65
2023/04/18 11:33:10;;;;;;;;;;;18.10;99.90;;;;;;5076350;28;19991;-68
2023/04/18 11:35:41;;;;;;;;;;;18.10;99.90;;;;;;5079008;28;20273;-68
2023/04/18 11:38:09;;;;;;;;;;;18.00;99.90;;;;;;5076985;28;20357;-69
2023/04/18 11:40:36;;;;;;;;;;;18.00;99.90;;;;;;5078619;28;19960;-67
2023/04/18 11:43:04;;;;;;;;;;;18.00;99.90;;;;;;5076796;28;19954;-63
2023/04/18 11:45:31;;;;;;;;;;;17.90;99.90;;;;;;5078480;28;20006;-67
2023/04/18 11:47:58;;;;;;;;;;;18.00;99.90;;;;;;5078745;28;19912;-64
2023/04/18 11:50:25;;;;;;;;;;;18.00;99.90;;;;;;5077798;28;19908;-68
2023/04/18 11:52:53;;;;;;;;;;;17.90;99.90;;;;;;5079601;28;19915;-69
2023/04/18 11:55:20;;;;;;;;;;;17.90;99.90;;;;;;5075574;28;20102;-64
2023/04/18 11:57:54;;;;;;;;;;;17.90;99.90;;;;;;5078884;28;20300;-69
2023/04/18 12:00:43;;;;;;;;;;;17.90;99.90;;;;;;5075203;28;19908;-62
2023/04/18 12:03:21;;;;;;;;;;;17.90;99.90;;;;;;5058230;28;20368;-68
2023/04/18 12:05:47;;;;;;;;;;;17.90;99.90;;;;;;5078585;28;19982;-70
2023/04/18 12:08:18;;;;;;;;;;;17.80;99.90;;;;;;5076293;28;20372;-69
2023/04/18 12:10:46;;;;;;;;;;;17.90;99.90;;;;;;5078541;28;19912;-64
2023/04/18 12:13:12;;;;;;;;;;;17.80;99.90;;;;;;5076040;28;19909;-64
2023/04/18 12:15:40;;;;;;;;;;;17.80;99.90;;;;;;5077985;28;20357;-68
2023/04/18 12:18:09;;;;;;;;;;;17.70;99.90;;;;;;5076626;28;20356;-64
2023/04/18 12:20:48;;;;;;;;;;;17.70;99.90;;;;;;5077748;28;19915;-64
2023/04/18 12:23:29;;;;;;;;;;;17.60;99.90;;;;;;5075671;28;19920;-65
2023/04/18 12:26:02;;;;;;;;;;;17.60;99.90;;;;;;5078600;28;20311;-67
2023/04/18 12:28:29;;;;;;;;;;;17.50;99.90;;;;;;5076964;28;20537;-63
2023/04/18 12:30:56;;;;;;;;;;;17.50;99.90;;;;;;5078621;28;20390;-63
2023/04/18 12:33:23;;;;;;;;;;;17.40;99.90;;;;;;5074618;28;19915;-64
2023/04/18 12:35:51;;;;;;;;;;;17.40;99.90;;;;;;5078384;28;19912;-64
2023/04/18 12:38:21;;;;;;;;;;;17.40;99.90;;;;;;5077242;28;19912;-63
2023/04/18 12:40:48;;;;;;;;;;;17.30;99.90;;;;;;5077523;28;19959;-62
2023/04/18 12:43:15;;;;;;;;;;;17.20;99.90;;;;;;5077060;28;19912;-63
2023/04/18 12:45:42;;;;;;;;;;;17.20;99.90;;;;;;5075978;28;19965;-63
2023/04/18 12:48:09;;;;;;;;;;;17.10;99.90;;;;;;5077885;28;20011;-63
2023/04/18 12:50:36;;;;;;;;;;;17.10;99.90;;;;;;5075943;28;20276;-62
2023/04/18 12:53:02;;;;;;;;;;;17.10;99.90;;;;;;5078436;28;19999;-65
2023/04/18 12:55:29;;;;;;;;;;;17.00;99.90;;;;;;5075257;28;20365;-67
2023/04/18 12:57:56;;;;;;;;;;;17.00;99.90;;;;;;5078100;28;19953;-69
2023/04/18 13:00:24;;;;;;;;;;;16.90;99.90;;;;;;5076163;28;19930;-64
2023/04/18 13:02:51;;;;;;;;;;;16.90;99.90;;;;;;5076879;28;20361;-63
2023/04/18 13:05:19;;;;;;;;;;;16.80;99.90;;;;;;5076475;28;20386;-70
2023/04/18 13:07:47;;;;;;;;;;;16.80;99.90;;;;;;5075413;28;19912;-66
2023/04/18 13:10:16;;;;;;;;;;;16.70;99.90;;;;;;5076829;28;19955;-67
2023/04/18 13:12:43;;;;;;;;;;;16.70;99.90;;;;;;5075566;28;20107;-68
2023/04/18 13:15:10;;;;;;;;;;;16.60;99.90;;;;;;5078101;28;19928;-68
2023/04/18 13:17:40;;;;;;;;;;;16.60;99.90;;;;;;5074915;28;20011;-67
2023/04/18 13:20:11;;;;;;;;;;;16.70;99.90;;;;;;5077631;28;19912;-67
2023/04/18 13:22:38;;;;;;;;;;;16.60;99.90;;;;;;5075153;28;19923;-67
2023/04/18 13:25:06;;;;;;;;;;;16.60;99.90;;;;;;5077414;28;19959;-70
2023/04/18 13:27:33;;;;;;;;;;;16.50;99.90;;;;;;5074055;28;20144;-64
2023/04/18 13:30:00;;;;;;;;;;;16.60;99.90;;;;;;5077304;28;19909;-64
2023/04/18 13:32:27;;;;;;;;;;;16.60;99.90;;;;;;5076045;28;19978;-66
2023/04/18 13:34:54;;;;;;;;;;;16.50;99.90;;;;;;5076389;28;19958;-71
2023/04/18 13:37:22;;;;;;;;;;;16.50;99.90;;;;;;5076254;28;19909;-68
2023/04/18 13:39:48;;;;;;;;;;;16.50;99.90;;;;;;5075237;28;20369;-67
2023/04/18 13:42:16;;;;;;;;;;;16.50;99.90;;;;;;5077196;28;19908;-66
2023/04/18 13:44:43;;;;;;;;;;;16.40;99.90;;;;;;5076955;28;19923;-65
2023/04/18 13:47:10;;;;;;;;;;;16.40;99.90;;;;;;5082000;28;19908;-65
2023/04/18 13:49:36;;;;;;;;;;;16.40;99.90;;;;;;5078290;28;19990;-64
2023/04/18 13:52:03;;;;;;;;;;;16.40;99.90;;;;;;5081529;28;19916;-63
2023/04/18 13:54:31;;;;;;;;;;;16.30;99.90;;;;;;5079967;28;19908;-64
2023/04/18 13:57:01;;;;;;;;;;;16.30;99.90;;;;;;5080430;28;20184;-64
2023/04/18 13:59:28;;;;;;;;;;;16.30;99.90;;;;;;5079924;28;19912;-64
2023/04/18 14:01:54;;;;;;;;;;;16.30;99.90;;;;;;5078494;28;19946;-67
2023/04/18 14:04:21;;;;;;;;;;;16.30;99.90;;;;;;5080792;28;20334;-66
2023/04/18 14:06:48;;;;;;;;;;;16.20;99.90;;;;;;5078819;28;20268;-69
2023/04/18 14:09:15;;;;;;;;;;;16.30;99.90;;;;;;5081466;28;20460;-64
2023/04/18 14:11:42;;;;;;;;;;;16.20;99.90;;;;;;5077835;28;20275;-67
2023/04/18 14:14:09;;;;;;;;;;;16.20;99.90;;;;;;5080948;28;19912;-67
2023/04/18 14:16:36;;;;;;;;;;;16.20;99.90;;;;;;5078933;28;20007;-62
2023/04/18 14:19:02;;;;;;;;;;;16.20;99.90;;;;;;5080086;28;19908;-67